sensor_id;sensor_type;location;lat;lon;timestamp;pressure;altitude;pressure_sealevel;temperature;humidity
17260;BME280;8746;49.230;9.220;2023-04-30T00:01:34;100260.41;;;10.92;89.00
17260;BME280;8746;49.230;9.220;2023-04-30T00:03:59;100254.38;;;10.88;90.03
17260;BME280;8746;49.230;9.220;2023-04-30T00:06:24;100260.19;;;10.98;89.25
17260;BME280;8746;49.230;9.220;2023-04-30T00:08:50;100259.56;;;10.92;89.88
17260;BME280;8746;49.230;9.220;2023-04-30T00:11:15;100254.50;;;10.85;90.31
17260;BME280;8746;49.230;9.220;2023-04-30T00:13:41;100264.41;;;10.79;90.19
17260;BME280;8746;49.230;9.220;2023-04-30T00:16:07;100264.19;;;10.85;89.96
17260;BME280;8746;49.230;9.220;2023-04-30T00:18:32;100265.16;;;10.82;89.36
17260;BME280;8746;49.230;9.220;2023-04-30T00:20:57;100267.47;;;10.92;87.68
17260;BME280;8746;49.230;9.220;2023-04-30T00:23:23;100262.94;;;10.95;88.58
17260;BME280;8746;49.230;9.220;2023-04-30T00:25:48;100268.78;;;10.80;88.41
17260;BME280;8746;49.230;9.220;2023-04-30T00:28:13;100264.09;;;10.88;88.12
17260;BME280;8746;49.230;9.220;2023-04-30T00:30:39;100268.56;;;10.86;88.15
17260;BME280;8746;49.230;9.220;2023-04-30T00:33:04;100267.75;;;10.84;88.15
17260;BME280;8746;49.230;9.220;2023-04-30T00:35:29;100272.22;;;10.82;86.66
17260;BME280;8746;49.230;9.220;2023-04-30T00:37:55;100265.84;;;10.87;87.03
17260;BME280;8746;49.230;9.220;2023-04-30T00:40:20;100276.38;;;10.89;87.04
17260;BME280;8746;49.230;9.220;2023-04-30T00:42:45;100284.97;;;10.94;88.35
17260;BME280;8746;49.230;9.220;2023-04-30T00:45:12;100287.25;;;10.80;87.85
17260;BME280;8746;49.230;9.220;2023-04-30T00:47:38;100286.50;;;10.76;87.57
17260;BME280;8746;49.230;9.220;2023-04-30T00:50:04;100283.00;;;10.76;88.26
17260;BME280;8746;49.230;9.220;2023-04-30T00:52:29;100284.28;;;10.89;87.90
17260;BME280;8746;49.230;9.220;2023-04-30T00:54:55;100294.41;;;10.76;88.19
17260;BME280;8746;49.230;9.220;2023-04-30T00:57:21;100290.00;;;10.77;87.90
17260;BME280;8746;49.230;9.220;2023-04-30T00:59:47;100288.75;;;10.87;87.66
17260;BME280;8746;49.230;9.220;2023-04-30T01:02:13;100288.44;;;10.71;88.74
17260;BME280;8746;49.230;9.220;2023-04-30T01:04:39;100291.16;;;10.69;88.81
17260;BME280;8746;49.230;9.220;2023-04-30T01:07:05;100294.78;;;10.65;89.14
17260;BME280;8746;49.230;9.220;2023-04-30T01:09:31;100292.13;;;10.67;88.69
17260;BME280;8746;49.230;9.220;2023-04-30T01:17:25;100296.72;;;10.60;90.29
17260;BME280;8746;49.230;9.220;2023-04-30T01:19:55;100299.44;;;10.58;90.59
17260;BME280;8746;49.230;9.220;2023-04-30T01:22:51;100291.84;;;10.74;89.83
17260;BME280;8746;49.230;9.220;2023-04-30T01:28:14;100291.25;;;10.66;88.18
17260;BME280;8746;49.230;9.220;2023-04-30T01:30:41;100296.91;;;10.81;87.94
17260;BME280;8746;49.230;9.220;2023-04-30T01:33:09;100289.50;;;10.65;88.39
17260;BME280;8746;49.230;9.220;2023-04-30T01:35:39;100293.13;;;10.63;88.71
17260;BME280;8746;49.230;9.220;2023-04-30T01:38:24;100292.97;;;10.67;89.30
17260;BME280;8746;49.230;9.220;2023-04-30T01:46:36;100290.41;;;10.64;89.66
17260;BME280;8746;49.230;9.220;2023-04-30T01:49:11;100289.88;;;10.54;90.59
17260;BME280;8746;49.230;9.220;2023-04-30T01:51:40;100290.09;;;10.48;90.96
17260;BME280;8746;49.230;9.220;2023-04-30T01:54:26;100294.09;;;10.60;91.58
17260;BME280;8746;49.230;9.220;2023-04-30T01:57:12;100287.47;;;10.48;91.46
17260;BME280;8746;49.230;9.220;2023-04-30T01:59:41;100288.47;;;10.44;90.69
17260;BME280;8746;49.230;9.220;2023-04-30T02:02:08;100294.03;;;10.36;91.43
17260;BME280;8746;49.230;9.220;2023-04-30T02:04:33;100290.06;;;10.50;92.22
17260;BME280;8746;49.230;9.220;2023-04-30T02:06:59;100284.13;;;10.43;91.35
17260;BME280;8746;49.230;9.220;2023-04-30T02:09:25;100281.69;;;10.37;90.74
17260;BME280;8746;49.230;9.220;2023-04-30T02:11:50;100281.72;;;10.35;91.03
17260;BME280;8746;49.230;9.220;2023-04-30T02:14:16;100290.53;;;10.34;91.61
17260;BME280;8746;49.230;9.220;2023-04-30T02:16:41;100284.44;;;10.32;91.50
17260;BME280;8746;49.230;9.220;2023-04-30T02:19:06;100280.84;;;10.35;92.09
17260;BME280;8746;49.230;9.220;2023-04-30T02:21:32;100285.31;;;10.33;92.05
17260;BME280;8746;49.230;9.220;2023-04-30T02:23:57;100285.41;;;10.30;91.88
17260;BME280;8746;49.230;9.220;2023-04-30T02:26:23;100287.22;;;10.29;92.00
17260;BME280;8746;49.230;9.220;2023-04-30T02:28:48;100289.78;;;10.31;92.46
17260;BME280;8746;49.230;9.220;2023-04-30T02:31:13;100289.13;;;10.24;91.99
17260;BME280;8746;49.230;9.220;2023-04-30T02:33:39;100290.84;;;10.25;92.77
17260;BME280;8746;49.230;9.220;2023-04-30T02:36:04;100290.97;;;10.22;92.38
17260;BME280;8746;49.230;9.220;2023-04-30T02:38:30;100289.63;;;10.35;93.79
17260;BME280;8746;49.230;9.220;2023-04-30T02:40:55;100295.19;;;10.26;93.04
17260;BME280;8746;49.230;9.220;2023-04-30T02:43:20;100290.00;;;10.24;93.58
17260;BME280;8746;49.230;9.220;2023-04-30T02:45:46;100291.88;;;10.21;93.02
17260;BME280;8746;49.230;9.220;2023-04-30T02:48:11;100287.22;;;10.29;93.15
17260;BME280;8746;49.230;9.220;2023-04-30T02:50:37;100293.66;;;10.20;93.09
17260;BME280;8746;49.230;9.220;2023-04-30T02:53:02;100288.38;;;10.20;93.40
17260;BME280;8746;49.230;9.220;2023-04-30T02:55:27;100284.03;;;10.18;93.40
17260;BME280;8746;49.230;9.220;2023-04-30T02:57:53;100285.78;;;10.19;94.25
17260;BME280;8746;49.230;9.220;2023-04-30T03:00:18;100287.69;;;10.14;94.94
17260;BME280;8746;49.230;9.220;2023-04-30T03:02:43;100289.44;;;10.15;94.25
17260;BME280;8746;49.230;9.220;2023-04-30T03:05:10;100288.72;;;10.09;93.99
17260;BME280;8746;49.230;9.220;2023-04-30T03:07:35;100281.81;;;10.05;94.23
17260;BME280;8746;49.230;9.220;2023-04-30T03:10:00;100285.31;;;10.06;94.52
17260;BME280;8746;49.230;9.220;2023-04-30T03:12:26;100284.56;;;10.02;94.16
17260;BME280;8746;49.230;9.220;2023-04-30T03:14:51;100279.91;;;10.10;93.58
17260;BME280;8746;49.230;9.220;2023-04-30T03:17:17;100289.72;;;10.05;93.86
17260;BME280;8746;49.230;9.220;2023-04-30T03:19:42;100292.63;;;9.98;94.07
17260;BME280;8746;49.230;9.220;2023-04-30T03:22:09;100289.72;;;10.05;93.39
17260;BME280;8746;49.230;9.220;2023-04-30T03:24:35;100284.31;;;10.10;93.35
17260;BME280;8746;49.230;9.220;2023-04-30T03:27:00;100290.53;;;10.07;93.22
17260;BME280;8746;49.230;9.220;2023-04-30T03:29:26;100293.13;;;10.09;92.39
17260;BME280;8746;49.230;9.220;2023-04-30T03:31:51;100294.91;;;10.08;92.76
17260;BME280;8746;49.230;9.220;2023-04-30T03:34:16;100294.09;;;10.06;93.15
17260;BME280;8746;49.230;9.220;2023-04-30T03:36:42;100291.44;;;10.06;92.65
17260;BME280;8746;49.230;9.220;2023-04-30T03:39:07;100289.50;;;10.11;92.68
17260;BME280;8746;49.230;9.220;2023-04-30T03:41:34;100297.50;;;10.10;93.06
17260;BME280;8746;49.230;9.220;2023-04-30T03:43:59;100306.31;;;10.09;93.99
17260;BME280;8746;49.230;9.220;2023-04-30T03:46:24;100300.25;;;10.05;92.88
17260;BME280;8746;49.230;9.220;2023-04-30T03:48:50;100290.63;;;10.04;93.82
17260;BME280;8746;49.230;9.220;2023-04-30T03:51:17;100296.63;;;10.09;94.34
17260;BME280;8746;49.230;9.220;2023-04-30T03:53:43;100289.00;;;10.00;93.41
17260;BME280;8746;49.230;9.220;2023-04-30T03:56:09;100285.31;;;10.06;93.71
17260;BME280;8746;49.230;9.220;2023-04-30T03:58:34;100283.84;;;9.97;93.03
17260;BME280;8746;49.230;9.220;2023-04-30T04:01:00;100274.03;;;10.02;94.19
17260;BME280;8746;49.230;9.220;2023-04-30T04:03:25;100289.63;;;10.08;93.73
17260;BME280;8746;49.230;9.220;2023-04-30T04:05:51;100288.19;;;9.98;93.94
17260;BME280;8746;49.230;9.220;2023-04-30T04:08:16;100284.50;;;10.04;93.84
17260;BME280;8746;49.230;9.220;2023-04-30T04:10:42;100286.09;;;10.09;93.42
17260;BME280;8746;49.230;9.220;2023-04-30T04:13:07;100285.31;;;10.06;94.96
17260;BME280;8746;49.230;9.220;2023-04-30T04:15:33;100287.34;;;9.98;93.54
17260;BME280;8746;49.230;9.220;2023-04-30T04:17:58;100284.44;;;10.05;94.08
17260;BME280;8746;49.230;9.220;2023-04-30T04:20:24;100285.41;;;10.03;93.92
17260;BME280;8746;49.230;9.220;2023-04-30T04:22:49;100292.63;;;9.98;93.34
17260;BME280;8746;49.230;9.220;2023-04-30T04:25:15;100295.09;;;10.02;93.92
17260;BME280;8746;49.230;9.220;2023-04-30T04:27:47;100290.88;;;9.97;94.45
17260;BME280;8746;49.230;9.220;2023-04-30T04:30:13;100301.50;;;9.95;93.54
17260;BME280;8746;49.230;9.220;2023-04-30T04:32:38;100304.81;;;10.00;92.76
17260;BME280;8746;49.230;9.220;2023-04-30T04:35:13;100303.09;;;9.99;92.67
17260;BME280;8746;49.230;9.220;2023-04-30T04:37:39;100311.72;;;10.04;91.98
17260;BME280;8746;49.230;9.220;2023-04-30T04:40:05;100308.09;;;10.08;91.50
17260;BME280;8746;49.230;9.220;2023-04-30T04:42:30;100310.72;;;10.08;91.81
17260;BME280;8746;49.230;9.220;2023-04-30T04:44:56;100315.09;;;10.09;91.77
17260;BME280;8746;49.230;9.220;2023-04-30T04:47:21;100303.91;;;10.01;91.43
17260;BME280;8746;49.230;9.220;2023-04-30T04:49:47;100316.91;;;10.07;91.67
17260;BME280;8746;49.230;9.220;2023-04-30T04:52:12;100317.75;;;10.08;91.55
17260;BME280;8746;49.230;9.220;2023-04-30T04:54:37;100323.13;;;10.05;92.26
17260;BME280;8746;49.230;9.220;2023-04-30T04:57:03;100326.44;;;10.11;91.19
17260;BME280;8746;49.230;9.220;2023-04-30T04:59:28;100325.38;;;10.17;92.68
17260;BME280;8746;49.230;9.220;2023-04-30T05:01:54;100324.72;;;10.10;92.12
17260;BME280;8746;49.230;9.220;2023-04-30T05:04:19;100327.75;;;10.25;92.04
17260;BME280;8746;49.230;9.220;2023-04-30T05:06:44;100321.06;;;10.15;92.20
17260;BME280;8746;49.230;9.220;2023-04-30T05:09:10;100321.13;;;10.13;91.94
17260;BME280;8746;49.230;9.220;2023-04-30T05:11:35;100315.38;;;10.27;92.08
17260;BME280;8746;49.230;9.220;2023-04-30T05:14:01;100319.13;;;10.20;92.30
17260;BME280;8746;49.230;9.220;2023-04-30T05:16:26;100320.03;;;10.20;93.00
17260;BME280;8746;49.230;9.220;2023-04-30T05:18:52;100328.00;;;10.17;92.62
17260;BME280;8746;49.230;9.220;2023-04-30T05:21:17;100321.63;;;10.24;92.82
17260;BME280;8746;49.230;9.220;2023-04-30T05:23:43;100318.84;;;10.29;92.81
17260;BME280;8746;49.230;9.220;2023-04-30T05:26:09;100320.47;;;10.33;93.18
17260;BME280;8746;49.230;9.220;2023-04-30T05:28:34;100315.88;;;10.40;93.09
17260;BME280;8746;49.230;9.220;2023-04-30T05:30:59;100318.66;;;10.35;92.98
17260;BME280;8746;49.230;9.220;2023-04-30T05:33:25;100322.66;;;10.47;92.39
17260;BME280;8746;49.230;9.220;2023-04-30T05:35:50;100317.84;;;10.60;91.66
17260;BME280;8746;49.230;9.220;2023-04-30T05:38:15;100324.50;;;10.45;92.62
17260;BME280;8746;49.230;9.220;2023-04-30T05:40:41;100321.72;;;10.50;92.39
17260;BME280;8746;49.230;9.220;2023-04-30T05:43:06;100325.66;;;10.63;92.95
17260;BME280;8746;49.230;9.220;2023-04-30T05:45:32;100312.25;;;10.69;91.50
17260;BME280;8746;49.230;9.220;2023-04-30T05:47:58;100318.59;;;10.89;92.32
17260;BME280;8746;49.230;9.220;2023-04-30T05:50:23;100314.00;;;10.69;91.29
17260;BME280;8746;49.230;9.220;2023-04-30T05:52:48;100319.19;;;10.72;91.74
17260;BME280;8746;49.230;9.220;2023-04-30T05:55:14;100324.50;;;10.70;93.06
17260;BME280;8746;49.230;9.220;2023-04-30T05:57:39;100315.59;;;10.74;91.26
17260;BME280;8746;49.230;9.220;2023-04-30T06:00:05;100318.81;;;10.83;91.13
17260;BME280;8746;49.230;9.220;2023-04-30T06:02:31;100321.13;;;10.92;91.13
17260;BME280;8746;49.230;9.220;2023-04-30T06:04:56;100318.38;;;10.95;89.82
17260;BME280;8746;49.230;9.220;2023-04-30T06:07:22;100316.00;;;11.13;90.05
17260;BME280;8746;49.230;9.220;2023-04-30T06:09:47;100325.41;;;10.96;89.59
17260;BME280;8746;49.230;9.220;2023-04-30T06:12:12;100324.19;;;11.05;89.54
17260;BME280;8746;49.230;9.220;2023-04-30T06:14:38;100314.84;;;11.20;89.88
17260;BME280;8746;49.230;9.220;2023-04-30T06:17:03;100310.59;;;11.16;88.79
17260;BME280;8746;49.230;9.220;2023-04-30T06:19:29;100318.75;;;11.33;88.14
17260;BME280;8746;49.230;9.220;2023-04-30T06:21:54;100323.91;;;11.36;88.27
17260;BME280;8746;49.230;9.220;2023-04-30T06:24:19;100315.47;;;11.50;87.95
17260;BME280;8746;49.230;9.220;2023-04-30T06:26:44;100312.88;;;11.73;87.84
17260;BME280;8746;49.230;9.220;2023-04-30T06:29:10;100316.91;;;11.81;88.03
17260;BME280;8746;49.230;9.220;2023-04-30T06:31:35;100320.44;;;11.82;85.36
17260;BME280;8746;49.230;9.220;2023-04-30T06:34:01;100314.91;;;11.88;85.63
17260;BME280;8746;49.230;9.220;2023-04-30T06:36:26;100320.41;;;12.06;84.64
17260;BME280;8746;49.230;9.220;2023-04-30T06:38:51;100319.34;;;12.10;82.45
17260;BME280;8746;49.230;9.220;2023-04-30T06:41:17;100335.72;;;11.97;80.38
17260;BME280;8746;49.230;9.220;2023-04-30T06:43:43;100326.28;;;11.90;80.71
17260;BME280;8746;49.230;9.220;2023-04-30T06:46:09;100326.16;;;11.93;81.58
17260;BME280;8746;49.230;9.220;2023-04-30T06:48:34;100325.84;;;11.79;81.39
17260;BME280;8746;49.230;9.220;2023-04-30T06:51:00;100332.75;;;11.59;81.60
17260;BME280;8746;49.230;9.220;2023-04-30T06:53:25;100337.84;;;11.42;82.20
17260;BME280;8746;49.230;9.220;2023-04-30T06:55:50;100333.81;;;11.55;81.93
17260;BME280;8746;49.230;9.220;2023-04-30T06:58:16;100330.13;;;11.81;80.50
17260;BME280;8746;49.230;9.220;2023-04-30T07:00:43;100334.88;;;11.97;80.24
17260;BME280;8746;49.230;9.220;2023-04-30T07:03:09;100332.81;;;12.03;80.66
17260;BME280;8746;49.230;9.220;2023-04-30T07:05:34;100329.47;;;12.22;80.17
17260;BME280;8746;49.230;9.220;2023-04-30T07:08:00;100320.16;;;12.12;79.68
17260;BME280;8746;49.230;9.220;2023-04-30T07:10:26;100321.34;;;12.47;81.12
17260;BME280;8746;49.230;9.220;2023-04-30T07:12:52;100326.56;;;12.28;79.61
17260;BME280;8746;49.230;9.220;2023-04-30T07:15:17;100318.28;;;12.36;80.10
17260;BME280;8746;49.230;9.220;2023-04-30T07:17:43;100323.31;;;12.42;78.16
17260;BME280;8746;49.230;9.220;2023-04-30T07:20:08;100317.31;;;12.39;79.79
17260;BME280;8746;49.230;9.220;2023-04-30T07:22:34;100321.28;;;12.49;78.83
17260;BME280;8746;49.230;9.220;2023-04-30T07:24:59;100322.91;;;12.74;79.75
17260;BME280;8746;49.230;9.220;2023-04-30T07:27:28;100318.25;;;12.79;78.26
17260;BME280;8746;49.230;9.220;2023-04-30T07:29:53;100316.13;;;12.87;78.81
17260;BME280;8746;49.230;9.220;2023-04-30T07:32:20;100312.03;;;13.01;76.31
17260;BME280;8746;49.230;9.220;2023-04-30T07:34:45;100323.00;;;13.12;75.99
17260;BME280;8746;49.230;9.220;2023-04-30T07:37:11;100308.25;;;13.25;76.15
17260;BME280;8746;49.230;9.220;2023-04-30T07:39:37;100317.94;;;13.26;75.60
17260;BME280;8746;49.230;9.220;2023-04-30T07:42:03;100308.53;;;13.19;74.67
17260;BME280;8746;49.230;9.220;2023-04-30T07:44:29;100315.00;;;13.33;77.36
17260;BME280;8746;49.230;9.220;2023-04-30T07:46:54;100308.34;;;13.24;75.54
17260;BME280;8746;49.230;9.220;2023-04-30T07:49:20;100319.66;;;13.27;74.28
17260;BME280;8746;49.230;9.220;2023-04-30T07:51:45;100308.69;;;13.35;74.22
17260;BME280;8746;49.230;9.220;2023-04-30T07:54:11;100303.41;;;13.35;72.02
17260;BME280;8746;49.230;9.220;2023-04-30T07:56:36;100308.38;;;13.43;72.96
17260;BME280;8746;49.230;9.220;2023-04-30T07:59:02;100308.88;;;13.70;76.11
17260;BME280;8746;49.230;9.220;2023-04-30T08:01:27;100312.38;;;13.90;nan
17260;BME280;8746;49.230;9.220;2023-04-30T08:03:53;100314.94;;;13.91;71.47
17260;BME280;8746;49.230;9.220;2023-04-30T08:06:18;100307.50;;;13.61;70.29
17260;BME280;8746;49.230;9.220;2023-04-30T08:08:43;100313.22;;;13.90;71.61
17260;BME280;8746;49.230;9.220;2023-04-30T08:11:09;100313.09;;;13.93;71.41
17260;BME280;8746;49.230;9.220;2023-04-30T08:13:35;100307.41;;;14.01;69.31
17260;BME280;8746;49.230;9.220;2023-04-30T08:16:01;100316.16;;;14.03;68.97
17260;BME280;8746;49.230;9.220;2023-04-30T08:18:26;100309.97;;;14.03;68.52
17260;BME280;8746;49.230;9.220;2023-04-30T08:20:51;100314.22;;;14.07;69.54
17260;BME280;8746;49.230;9.220;2023-04-30T08:23:17;100310.16;;;14.17;67.51
17260;BME280;8746;49.230;9.220;2023-04-30T08:25:42;100301.00;;;14.05;66.13
17260;BME280;8746;49.230;9.220;2023-04-30T08:28:07;100315.19;;;14.04;65.50
17260;BME280;8746;49.230;9.220;2023-04-30T08:30:33;100312.81;;;14.17;64.51
17260;BME280;8746;49.230;9.220;2023-04-30T08:32:58;100297.38;;;14.25;65.95
17260;BME280;8746;49.230;9.220;2023-04-30T08:35:24;100299.81;;;14.48;64.92
17260;BME280;8746;49.230;9.220;2023-04-30T08:37:49;100293.94;;;14.58;65.00
17260;BME280;8746;49.230;9.220;2023-04-30T08:40:15;100293.44;;;14.69;63.02
17260;BME280;8746;49.230;9.220;2023-04-30T08:42:45;100300.28;;;14.56;61.50
17260;BME280;8746;49.230;9.220;2023-04-30T08:45:11;100295.22;;;14.69;62.18
17260;BME280;8746;49.230;9.220;2023-04-30T08:47:38;100293.16;;;14.92;61.55
17260;BME280;8746;49.230;9.220;2023-04-30T08:50:05;100294.13;;;15.06;60.91
17260;BME280;8746;49.230;9.220;2023-04-30T08:52:33;100299.22;;;14.94;59.47
17260;BME280;8746;49.230;9.220;2023-04-30T08:55:00;100297.78;;;14.88;60.11
17260;BME280;8746;49.230;9.220;2023-04-30T08:57:25;100297.47;;;14.77;57.93
17260;BME280;8746;49.230;9.220;2023-04-30T08:59:52;100301.13;;;14.74;58.43
17260;BME280;8746;49.230;9.220;2023-04-30T09:02:17;100287.97;;;15.06;56.98
17260;BME280;8746;49.230;9.220;2023-04-30T09:04:43;100288.81;;;15.06;56.90
17260;BME280;8746;49.230;9.220;2023-04-30T09:07:09;100289.69;;;15.23;55.23
17260;BME280;8746;49.230;9.220;2023-04-30T09:09:39;100290.84;;;15.67;53.46
17260;BME280;8746;49.230;9.220;2023-04-30T09:12:17;100292.47;;;15.37;51.54
17260;BME280;8746;49.230;9.220;2023-04-30T09:15:02;100289.69;;;15.23;52.78
17260;BME280;8746;49.230;9.220;2023-04-30T09:17:29;100283.97;;;15.31;51.55
17260;BME280;8746;49.230;9.220;2023-04-30T09:20:14;100285.06;;;15.27;52.88
17260;BME280;8746;49.230;9.220;2023-04-30T09:22:40;100290.53;;;15.07;51.51
17260;BME280;8746;49.230;9.220;2023-04-30T09:25:07;100293.66;;;15.16;51.90
17260;BME280;8746;49.230;9.220;2023-04-30T09:27:33;100288.91;;;15.05;51.90
17260;BME280;8746;49.230;9.220;2023-04-30T09:29:58;100282.13;;;15.49;51.84
17260;BME280;8746;49.230;9.220;2023-04-30T09:32:24;100287.16;;;15.69;54.02
17260;BME280;8746;49.230;9.220;2023-04-30T09:34:50;100282.97;;;15.81;55.55
17260;BME280;8746;49.230;9.220;2023-04-30T09:37:15;100284.59;;;15.68;50.43
17260;BME280;8746;49.230;9.220;2023-04-30T09:39:52;100284.34;;;15.41;51.08
17260;BME280;8746;49.230;9.220;2023-04-30T09:42:18;100283.31;;;15.43;49.88
17260;BME280;8746;49.230;9.220;2023-04-30T09:44:44;100285.06;;;15.27;52.25
17260;BME280;8746;49.230;9.220;2023-04-30T09:47:17;100282.94;;;15.17;50.43
17260;BME280;8746;49.230;9.220;2023-04-30T09:49:46;100274.03;;;15.34;50.86
17260;BME280;8746;49.230;9.220;2023-04-30T09:52:14;100277.06;;;15.44;50.24
17260;BME280;8746;49.230;9.220;2023-04-30T09:54:42;100283.06;;;15.48;50.64
17260;BME280;8746;49.230;9.220;2023-04-30T09:57:10;100272.59;;;15.61;52.31
17260;BME280;8746;49.230;9.220;2023-04-30T09:59:36;100278.44;;;15.83;52.96
17260;BME280;8746;49.230;9.220;2023-04-30T10:02:05;100282.63;;;15.88;52.50
17260;BME280;8746;49.230;9.220;2023-04-30T10:04:42;100276.53;;;15.69;49.84
17260;BME280;8746;49.230;9.220;2023-04-30T10:09:40;100275.84;;;15.50;53.05
17260;BME280;8746;49.230;9.220;2023-04-30T10:12:14;100280.50;;;15.94;50.02
17260;BME280;8746;49.230;9.220;2023-04-30T10:14:50;100275.78;;;15.83;49.68
17260;BME280;8746;49.230;9.220;2023-04-30T10:17:17;100278.94;;;15.74;49.27
17260;BME280;8746;49.230;9.220;2023-04-30T10:19:47;100266.06;;;15.98;49.82
17260;BME280;8746;49.230;9.220;2023-04-30T10:22:14;100272.41;;;15.96;52.73
17260;BME280;8746;49.230;9.220;2023-04-30T10:24:41;100267.94;;;15.96;53.41
17260;BME280;8746;49.230;9.220;2023-04-30T10:27:06;100264.69;;;15.91;53.68
17260;BME280;8746;49.230;9.220;2023-04-30T10:29:32;100264.19;;;15.68;54.90
17260;BME280;8746;49.230;9.220;2023-04-30T10:31:58;100264.53;;;15.78;56.10
17260;BME280;8746;49.230;9.220;2023-04-30T10:34:50;100262.81;;;15.45;54.65
17260;BME280;8746;49.230;9.220;2023-04-30T10:37:23;100259.47;;;15.58;53.74
17260;BME280;8746;49.230;9.220;2023-04-30T10:39:51;100263.22;;;15.53;52.11
17260;BME280;8746;49.230;9.220;2023-04-30T10:42:17;100263.41;;;15.18;51.94
17260;BME280;8746;49.230;9.220;2023-04-30T10:44:42;100258.09;;;15.34;53.19
17260;BME280;8746;49.230;9.220;2023-04-30T10:47:07;100265.03;;;15.37;50.95
17260;BME280;8746;49.230;9.220;2023-04-30T10:49:33;100258.34;;;15.46;51.66
17260;BME280;8746;49.230;9.220;2023-04-30T10:52:03;100258.59;;;15.41;53.04
17260;BME280;8746;49.230;9.220;2023-04-30T10:54:36;100251.41;;;15.43;52.66
17260;BME280;8746;49.230;9.220;2023-04-30T10:59:35;100247.13;;;15.57;52.10
17260;BME280;8746;49.230;9.220;2023-04-30T11:02:01;100243.88;;;15.51;53.23
17260;BME280;8746;49.230;9.220;2023-04-30T11:04:27;100246.50;;;15.67;54.49
17260;BME280;8746;49.230;9.220;2023-04-30T11:12:04;100238.97;;;15.44;53.06
17260;BME280;8746;49.230;9.220;2023-04-30T11:14:33;100234.94;;;15.68;53.37
17260;BME280;8746;49.230;9.220;2023-04-30T11:16:59;100241.00;;;15.70;53.89
17260;BME280;8746;49.230;9.220;2023-04-30T11:19:27;100243.16;;;15.64;53.69
17260;BME280;8746;49.230;9.220;2023-04-30T11:25:32;100236.97;;;15.79;51.66
17260;BME280;8746;49.230;9.220;2023-04-30T11:27:41;100240.66;;;15.77;51.67
17260;BME280;8746;49.230;9.220;2023-04-30T11:30:16;100236.56;;;15.87;49.92
17260;BME280;8746;49.230;9.220;2023-04-30T11:32:43;100243.25;;;15.78;50.32
17260;BME280;8746;49.230;9.220;2023-04-30T11:35:11;100238.00;;;15.93;52.56
17260;BME280;8746;49.230;9.220;2023-04-30T11:37:41;100237.00;;;15.95;52.48
17260;BME280;8746;49.230;9.220;2023-04-30T11:40:10;100232.28;;;15.84;52.04
17260;BME280;8746;49.230;9.220;2023-04-30T11:42:40;100238.19;;;15.90;49.33
17260;BME280;8746;49.230;9.220;2023-04-30T11:47:45;100236.81;;;15.82;52.29
17260;BME280;8746;49.230;9.220;2023-04-30T11:50:16;100235.69;;;15.86;52.43
17260;BME280;8746;49.230;9.220;2023-04-30T11:52:48;100234.50;;;15.76;51.97
17260;BME280;8746;49.230;9.220;2023-04-30T11:55:16;100229.84;;;15.96;53.21
17260;BME280;8746;49.230;9.220;2023-04-30T11:57:43;100227.16;;;16.12;51.37
17260;BME280;8746;49.230;9.220;2023-04-30T12:00:13;100229.91;;;16.10;51.64
17260;BME280;8746;49.230;9.220;2023-04-30T12:02:41;100225.78;;;16.35;50.29
17260;BME280;8746;49.230;9.220;2023-04-30T12:05:16;100222.41;;;16.17;51.13
17260;BME280;8746;49.230;9.220;2023-04-30T12:08:03;100223.91;;;16.37;50.36
17260;BME280;8746;49.230;9.220;2023-04-30T12:10:32;100228.56;;;16.03;49.07
17260;BME280;8746;49.230;9.220;2023-04-30T12:12:57;100219.03;;;16.44;48.59
17260;BME280;8746;49.230;9.220;2023-04-30T12:15:24;100207.94;;;16.66;47.69
17260;BME280;8746;49.230;9.220;2023-04-30T12:17:51;100210.13;;;16.88;47.85
17260;BME280;8746;49.230;9.220;2023-04-30T12:20:18;100209.28;;;16.88;48.21
17260;BME280;8746;49.230;9.220;2023-04-30T12:22:46;100207.13;;;16.94;48.45
17260;BME280;8746;49.230;9.220;2023-04-30T12:25:13;100199.19;;;16.64;46.95
17260;BME280;8746;49.230;9.220;2023-04-30T12:27:41;100204.41;;;16.51;47.33
17260;BME280;8746;49.230;9.220;2023-04-30T12:30:07;100205.31;;;16.35;47.69
17260;BME280;8746;49.230;9.220;2023-04-30T12:32:43;100199.66;;;16.56;48.33
17260;BME280;8746;49.230;9.220;2023-04-30T12:35:14;100199.09;;;16.80;48.73
17260;BME280;8746;49.230;9.220;2023-04-30T12:37:47;100195.78;;;16.91;47.08
17260;BME280;8746;49.230;9.220;2023-04-30T12:40:14;100195.19;;;16.86;47.09
17260;BME280;8746;49.230;9.220;2023-04-30T12:42:41;100188.78;;;16.88;47.77
17260;BME280;8746;49.230;9.220;2023-04-30T12:45:08;100181.00;;;16.56;48.55
17260;BME280;8746;49.230;9.220;2023-04-30T12:47:37;100182.72;;;16.72;49.71
17260;BME280;8746;49.230;9.220;2023-04-30T12:50:07;100187.38;;;17.81;48.07
17260;BME280;8746;49.230;9.220;2023-04-30T12:52:33;100167.72;;;18.73;45.21
17260;BME280;8746;49.230;9.220;2023-04-30T12:55:16;100172.63;;;18.80;41.83
17260;BME280;8746;49.230;9.220;2023-04-30T12:58:05;100162.16;;;19.02;43.02
17260;BME280;8746;49.230;9.220;2023-04-30T13:00:50;100157.03;;;18.61;43.87
17260;BME280;8746;49.230;9.220;2023-04-30T13:03:20;100159.19;;;18.17;44.11
17260;BME280;8746;49.230;9.220;2023-04-30T13:05:50;100156.81;;;18.25;43.80
17260;BME280;8746;49.230;9.220;2023-04-30T13:08:16;100161.84;;;17.49;45.78
17260;BME280;8746;49.230;9.220;2023-04-30T13:10:42;100157.47;;;17.21;45.20
17260;BME280;8746;49.230;9.220;2023-04-30T13:13:08;100150.03;;;17.26;48.42
17260;BME280;8746;49.230;9.220;2023-04-30T13:15:33;100154.50;;;17.25;49.28
17260;BME280;8746;49.230;9.220;2023-04-30T13:17:59;100146.38;;;16.85;47.41
17260;BME280;8746;49.230;9.220;2023-04-30T13:20:24;100146.84;;;17.06;47.29
17260;BME280;8746;49.230;9.220;2023-04-30T13:22:50;100149.22;;;17.11;45.86
17260;BME280;8746;49.230;9.220;2023-04-30T13:25:16;100140.88;;;16.74;46.82
17260;BME280;8746;49.230;9.220;2023-04-30T13:27:42;100144.72;;;17.11;47.19
17260;BME280;8746;49.230;9.220;2023-04-30T13:30:09;100135.66;;;18.61;44.73